createdAt,value
2022-09-15T00:00:20.646Z,17.30
2022-09-15T00:02:47.219Z,17.30
2022-09-15T00:05:13.893Z,17.30
2022-09-15T00:07:40.433Z,17.20
2022-09-15T00:10:06.952Z,17.20
2022-09-15T00:12:33.550Z,17.30
2022-09-15T00:15:00.182Z,17.30
2022-09-15T00:17:26.769Z,17.30
2022-09-15T00:19:53.286Z,17.30
2022-09-15T00:22:19.783Z,17.30
2022-09-15T00:24:46.270Z,17.30
2022-09-15T00:27:12.818Z,17.30
2022-09-15T00:29:39.652Z,17.30
2022-09-15T00:32:06.156Z,17.30
2022-09-15T00:34:32.785Z,17.40
2022-09-15T00:36:59.399Z,17.30
2022-09-15T00:39:25.910Z,17.40
2022-09-15T00:41:52.436Z,17.40
2022-09-15T00:44:19.002Z,17.40
2022-09-15T00:46:58.690Z,17.40
2022-09-15T00:49:32.440Z,17.40
2022-09-15T00:51:58.979Z,17.50
2022-09-15T00:54:25.499Z,17.50
2022-09-15T00:56:52.298Z,17.50
2022-09-15T00:59:18.865Z,17.50
2022-09-15T01:01:45.590Z,17.50
2022-09-15T01:04:12.162Z,17.50
2022-09-15T01:06:38.692Z,17.50
2022-09-15T01:09:13.376Z,17.40
2022-09-15T01:11:39.870Z,17.50
2022-09-15T01:14:06.549Z,17.50
2022-09-15T01:16:33.460Z,17.40
2022-09-15T01:19:00.050Z,17.40
2022-09-15T01:21:26.710Z,17.40
2022-09-15T01:23:53.296Z,17.40
2022-09-15T01:26:19.774Z,17.40
2022-09-15T01:28:46.689Z,17.40
2022-09-15T01:31:13.354Z,17.40
2022-09-15T01:33:39.934Z,17.40
2022-09-15T01:36:18.305Z,17.40
2022-09-15T01:38:44.919Z,17.40
2022-09-15T01:41:19.522Z,17.30
2022-09-15T01:43:46.074Z,17.40
2022-09-15T01:48:52.977Z,17.30
2022-09-15T01:51:19.649Z,17.30
2022-09-15T01:53:46.281Z,17.30
2022-09-15T01:56:12.864Z,17.30
2022-09-15T01:58:39.525Z,17.30
2022-09-15T02:01:06.140Z,17.30
2022-09-15T02:03:33.130Z,17.30
2022-09-15T02:05:59.959Z,17.30
2022-09-15T02:08:26.454Z,17.20
2022-09-15T02:10:53.096Z,17.20
2022-09-15T02:13:27.725Z,17.20
2022-09-15T02:15:54.388Z,17.20
2022-09-15T02:18:20.874Z,17.20
2022-09-15T02:20:47.447Z,17.20
2022-09-15T02:23:14.110Z,17.20
2022-09-15T02:25:40.979Z,17.20
2022-09-15T02:28:07.745Z,17.20
2022-09-15T02:30:34.285Z,17.20
2022-09-15T02:33:00.769Z,17.20
2022-09-15T02:35:27.458Z,17.20
2022-09-15T02:37:54.106Z,17.20
2022-09-15T02:40:20.745Z,17.20
2022-09-15T02:42:47.406Z,17.10
2022-09-15T02:45:13.925Z,17.10
2022-09-15T02:47:40.562Z,17.10
2022-09-15T02:50:07.417Z,17.10
2022-09-15T02:52:34.034Z,17.10
2022-09-15T02:55:00.501Z,17.10
2022-09-15T02:57:27.022Z,17.10
2022-09-15T02:59:53.694Z,17.10
2022-09-15T03:02:20.632Z,17.10
2022-09-15T03:04:47.250Z,17.10
2022-09-15T03:07:13.757Z,17.10
2022-09-15T03:09:40.240Z,17.10
2022-09-15T03:12:06.707Z,17.10
2022-09-15T03:14:33.251Z,17.10
2022-09-15T03:16:59.887Z,17.00
2022-09-15T03:19:26.544Z,17.00
2022-09-15T03:21:53.025Z,17.00
2022-09-15T03:24:19.559Z,17.10
2022-09-15T03:26:46.052Z,17.00
2022-09-15T03:29:12.542Z,17.00
2022-09-15T03:31:39.238Z,17.00
2022-09-15T03:34:05.776Z,17.00
2022-09-15T03:36:32.298Z,17.00
2022-09-15T03:38:58.843Z,17.00
2022-09-15T03:41:25.355Z,17.00
2022-09-15T03:43:51.995Z,17.00
2022-09-15T03:46:18.548Z,17.00
2022-09-15T03:48:45.064Z,17.00
2022-09-15T03:51:11.551Z,16.90
2022-09-15T03:53:38.070Z,16.90
2022-09-15T03:56:04.578Z,16.90
2022-09-15T03:58:31.065Z,16.90
2022-09-15T04:00:57.670Z,16.90
2022-09-15T04:03:24.179Z,16.90
2022-09-15T04:05:50.655Z,16.90
2022-09-15T04:08:17.211Z,16.90
2022-09-15T04:10:43.748Z,16.90
2022-09-15T04:13:10.269Z,16.90
2022-09-15T04:15:36.815Z,16.90
2022-09-15T04:18:03.341Z,16.90
2022-09-15T04:20:29.857Z,16.90
2022-09-15T04:22:56.382Z,16.90
2022-09-15T04:25:22.857Z,16.90
2022-09-15T04:27:49.420Z,16.90
2022-09-15T04:30:15.955Z,16.90
2022-09-15T04:32:42.480Z,16.80
2022-09-15T04:35:09.002Z,16.80
2022-09-15T04:37:35.515Z,16.80
2022-09-15T04:40:02.102Z,16.80
2022-09-15T04:42:28.778Z,16.80
2022-09-15T04:44:55.303Z,16.80
2022-09-15T04:47:21.775Z,16.80
2022-09-15T04:49:48.278Z,16.70
2022-09-15T04:52:14.814Z,16.80
2022-09-15T04:54:41.298Z,16.80
2022-09-15T04:57:07.839Z,16.70
2022-09-15T04:59:34.313Z,16.70
2022-09-15T05:02:00.860Z,16.70
2022-09-15T05:04:27.591Z,16.70
2022-09-15T05:06:54.115Z,16.70
2022-09-15T05:09:20.637Z,16.80
2022-09-15T05:11:47.125Z,16.80
2022-09-15T05:14:13.663Z,16.80
2022-09-15T05:16:40.293Z,16.80
2022-09-15T05:19:06.919Z,16.80
2022-09-15T05:21:33.446Z,16.80
2022-09-15T05:23:59.961Z,16.80
2022-09-15T05:26:26.530Z,16.80
2022-09-15T05:28:53.073Z,16.80
2022-09-15T05:31:19.644Z,16.80
2022-09-15T05:33:46.189Z,16.80
2022-09-15T05:36:12.709Z,16.80
2022-09-15T05:38:39.192Z,16.80
2022-09-15T05:41:05.726Z,16.80
2022-09-15T05:43:32.274Z,16.80
2022-09-15T05:45:58.798Z,16.80
2022-09-15T05:48:25.326Z,16.80
2022-09-15T05:50:51.873Z,16.90
2022-09-15T05:53:18.395Z,16.80
2022-09-15T05:55:44.913Z,16.90
2022-09-15T05:58:11.458Z,16.90
2022-09-15T06:00:37.973Z,16.90
2022-09-15T06:03:04.604Z,16.90
2022-09-15T06:05:31.178Z,16.90
2022-09-15T06:07:57.711Z,16.90
2022-09-15T06:10:25.524Z,16.90
2022-09-15T06:12:52.026Z,16.90
2022-09-15T06:15:18.499Z,16.90
2022-09-15T06:17:44.986Z,16.90
2022-09-15T06:20:11.494Z,16.90
2022-09-15T06:22:38.028Z,16.90
2022-09-15T06:25:04.547Z,16.90
2022-09-15T06:27:31.029Z,16.90
2022-09-15T06:29:57.659Z,16.90
2022-09-15T06:32:24.165Z,16.90
2022-09-15T06:34:50.699Z,17.00
2022-09-15T06:37:29.904Z,17.00
2022-09-15T06:39:56.470Z,17.00
2022-09-15T06:42:23.095Z,17.00
2022-09-15T06:44:49.619Z,17.00
2022-09-15T06:47:16.105Z,17.00
2022-09-15T06:49:42.640Z,17.00
2022-09-15T06:52:09.165Z,17.00
2022-09-15T06:54:35.728Z,17.00
2022-09-15T06:57:02.357Z,17.00
2022-09-15T06:59:28.930Z,17.10
2022-09-15T07:01:55.510Z,17.10
2022-09-15T07:04:22.065Z,17.10
2022-09-15T07:06:48.573Z,17.10
2022-09-15T07:09:15.054Z,17.10
2022-09-15T07:11:41.545Z,17.10
2022-09-15T07:14:08.050Z,17.10
2022-09-15T07:16:34.660Z,17.10
2022-09-15T07:19:01.238Z,17.10
2022-09-15T07:21:28.123Z,17.10
2022-09-15T07:23:54.637Z,17.10
2022-09-15T07:26:21.166Z,17.10
2022-09-15T07:28:47.671Z,17.10
2022-09-15T07:31:14.196Z,17.10
2022-09-15T07:33:40.768Z,17.10
2022-09-15T07:36:07.317Z,17.10
2022-09-15T07:38:33.850Z,17.20
2022-09-15T07:41:00.385Z,17.20
2022-09-15T07:43:26.904Z,17.20
2022-09-15T07:45:53.521Z,17.20
2022-09-15T07:48:23.263Z,17.20
2022-09-15T07:50:52.823Z,17.20
2022-09-15T07:53:19.381Z,17.20
2022-09-15T07:55:45.873Z,17.20
2022-09-15T07:58:12.415Z,17.20
2022-09-15T08:00:38.985Z,17.20
2022-09-15T08:03:05.538Z,17.20
2022-09-15T08:05:34.756Z,17.20
2022-09-15T08:08:04.704Z,17.10
2022-09-15T08:10:31.194Z,17.10
2022-09-15T08:12:57.721Z,17.10
2022-09-15T08:15:24.395Z,17.10
2022-09-15T08:17:50.934Z,17.10
2022-09-15T08:20:17.476Z,17.10
2022-09-15T08:22:44.064Z,17.10
2022-09-15T08:25:10.605Z,17.10
2022-09-15T08:27:37.140Z,17.00
2022-09-15T08:30:03.690Z,17.00
2022-09-15T08:32:30.181Z,17.00
2022-09-15T08:34:56.804Z,17.00
2022-09-15T08:37:23.547Z,17.00
2022-09-15T08:40:01.425Z,17.00
2022-09-15T08:42:28.369Z,16.90
2022-09-15T08:44:54.871Z,16.90
2022-09-15T08:47:29.563Z,16.80
2022-09-15T09:03:14.301Z,16.80
2022-09-15T09:05:40.827Z,16.40
2022-09-15T09:08:07.377Z,16.30
2022-09-15T09:10:33.898Z,16.20
2022-09-15T09:13:00.436Z,16.20
2022-09-15T09:15:27.079Z,16.10
2022-09-15T09:17:53.665Z,16.10
2022-09-15T09:20:20.137Z,16.10
2022-09-15T09:22:46.648Z,16.10
2022-09-15T09:25:26.803Z,16.00
2022-09-15T09:27:54.377Z,16.10
2022-09-15T09:30:20.851Z,16.00
2022-09-15T09:32:47.338Z,16.00
2022-09-15T09:35:13.843Z,16.00
2022-09-15T09:37:40.382Z,16.00
2022-09-15T09:40:06.982Z,16.10
2022-09-15T09:42:33.599Z,16.00
2022-09-15T09:45:00.225Z,16.10
2022-09-15T09:47:26.760Z,16.10
2022-09-15T09:49:53.311Z,16.10
2022-09-15T09:52:22.014Z,16.10
2022-09-15T09:54:48.603Z,16.10
2022-09-15T09:57:15.081Z,16.10
2022-09-15T09:59:41.614Z,16.10
2022-09-15T10:02:08.129Z,16.10
2022-09-15T10:04:34.753Z,16.10
2022-09-15T10:07:01.247Z,16.10
2022-09-15T10:09:32.575Z,16.10
2022-09-15T10:11:59.830Z,16.20
2022-09-15T10:14:26.393Z,16.20
2022-09-15T10:16:52.933Z,16.20
2022-09-15T10:19:19.421Z,16.20
2022-09-15T10:21:45.941Z,16.20
2022-09-15T10:24:13.582Z,16.20
2022-09-15T10:26:42.867Z,16.20
2022-09-15T10:29:09.425Z,16.20
2022-09-15T10:31:35.961Z,16.20
2022-09-15T10:34:02.515Z,16.20
2022-09-15T10:36:29.090Z,16.20
2022-09-15T10:38:55.627Z,16.20
2022-09-15T10:41:22.154Z,16.20
2022-09-15T10:43:48.690Z,16.20
2022-09-15T10:46:15.220Z,16.20
2022-09-15T10:48:42.110Z,16.30
2022-09-15T10:51:08.650Z,16.30
2022-09-15T10:53:35.114Z,16.30
2022-09-15T10:56:01.629Z,16.30
2022-09-15T10:58:28.158Z,16.30
2022-09-15T11:00:54.658Z,16.40
2022-09-15T11:03:21.251Z,16.40
2022-09-15T11:05:47.730Z,16.40
2022-09-15T11:08:14.287Z,16.40
2022-09-15T11:10:40.809Z,16.50
2022-09-15T11:13:07.327Z,16.50
2022-09-15T11:15:33.822Z,16.50
2022-09-15T11:18:00.349Z,16.60
2022-09-15T11:20:26.881Z,16.60
2022-09-15T11:22:53.454Z,16.60
2022-09-15T11:25:19.934Z,16.60
2022-09-15T11:27:46.474Z,16.60
2022-09-15T11:30:13.023Z,16.60
2022-09-15T11:32:39.607Z,16.60
2022-09-15T11:35:06.233Z,16.60
2022-09-15T11:37:32.866Z,16.60
2022-09-15T11:39:59.427Z,16.60
2022-09-15T11:42:25.990Z,16.60
2022-09-15T11:44:52.513Z,16.60
2022-09-15T11:47:19.069Z,16.60
2022-09-15T11:49:45.562Z,16.60
2022-09-15T11:52:12.051Z,16.70
2022-09-15T11:54:38.707Z,16.80
2022-09-15T11:57:05.237Z,16.90
2022-09-15T11:59:31.745Z,16.90
2022-09-15T12:01:58.338Z,17.00
2022-09-15T12:04:24.847Z,17.10
2022-09-15T12:06:51.378Z,17.20
2022-09-15T12:09:17.925Z,17.20
2022-09-15T12:11:44.411Z,17.20
2022-09-15T12:14:10.946Z,17.30
2022-09-15T12:16:37.514Z,17.30
2022-09-15T12:19:04.002Z,17.30
2022-09-15T12:21:30.538Z,17.30
2022-09-15T12:23:57.048Z,17.30
2022-09-15T12:26:23.540Z,17.30
2022-09-15T12:28:50.381Z,17.40
2022-09-15T12:31:16.956Z,17.50
2022-09-15T12:33:43.525Z,17.50
2022-09-15T12:36:10.018Z,17.50
2022-09-15T12:38:36.572Z,17.50
2022-09-15T12:41:03.217Z,17.60
2022-09-15T12:43:29.693Z,17.60
2022-09-15T12:45:56.629Z,17.60
2022-09-15T12:48:23.206Z,17.60
2022-09-15T12:50:49.742Z,17.50
2022-09-15T12:53:16.346Z,17.40
2022-09-15T12:55:43.182Z,17.30
2022-09-15T12:58:09.668Z,17.20
2022-09-15T13:00:36.219Z,17.00
2022-09-15T13:03:02.947Z,16.90
2022-09-15T13:05:29.660Z,16.80
2022-09-15T13:08:04.210Z,16.80
2022-09-15T13:10:30.769Z,16.70
2022-09-15T13:13:06.287Z,16.70
2022-09-15T13:18:13.231Z,16.60
2022-09-15T13:20:39.781Z,16.50
2022-09-15T13:23:06.434Z,16.40
2022-09-15T13:25:32.930Z,16.30
2022-09-15T13:27:59.824Z,16.30
2022-09-15T13:30:26.320Z,16.30
2022-09-15T13:32:52.999Z,16.30
2022-09-15T13:35:20.836Z,16.20
2022-09-15T13:38:12.208Z,16.20
2022-09-15T13:40:34.524Z,16.20
2022-09-15T13:43:01.232Z,16.20
2022-09-15T13:45:27.717Z,16.20
2022-09-15T13:47:54.242Z,16.20
2022-09-15T13:50:20.764Z,16.20
2022-09-15T13:52:47.380Z,16.20
2022-09-15T13:55:13.862Z,16.20
2022-09-15T14:00:26.998Z,16.20
2022-09-15T14:02:53.648Z,16.30
2022-09-15T14:05:20.176Z,16.30
2022-09-15T14:07:48.724Z,16.30
2022-09-15T14:10:17.362Z,16.30
2022-09-15T14:12:44.158Z,16.30
2022-09-15T14:15:10.708Z,16.40
2022-09-15T14:17:37.381Z,16.40
2022-09-15T14:20:12.939Z,16.40
2022-09-15T14:22:39.465Z,16.40
2022-09-15T14:25:05.962Z,16.40
2022-09-15T14:27:32.498Z,16.40
2022-09-15T14:32:39.419Z,16.40
2022-09-15T14:35:05.952Z,16.40
2022-09-15T14:37:32.756Z,16.40
2022-09-15T14:39:59.433Z,16.40
2022-09-15T14:42:26.024Z,16.40
2022-09-15T14:47:56.200Z,16.50
2022-09-15T14:50:22.673Z,16.50
2022-09-15T14:52:57.252Z,16.50
2022-09-15T14:55:23.762Z,16.50
2022-09-15T14:57:50.376Z,16.60
2022-09-15T15:00:16.882Z,16.70
2022-09-15T15:02:45.411Z,16.80
2022-09-15T15:05:12.312Z,16.90
2022-09-15T15:07:38.875Z,16.90
2022-09-15T15:10:13.549Z,16.90
2022-09-15T15:12:48.334Z,16.90
2022-09-15T15:15:23.321Z,16.90
2022-09-15T15:17:50.188Z,16.90
2022-09-15T15:20:17.053Z,16.90
2022-09-15T15:22:43.908Z,16.80
2022-09-15T15:25:19.353Z,16.70
2022-09-15T15:27:57.816Z,16.70
2022-09-15T15:30:24.457Z,16.60
2022-09-15T15:32:53.446Z,16.60
2022-09-15T15:35:20.106Z,16.60
2022-09-15T15:37:48.011Z,16.50
2022-09-15T15:40:15.702Z,16.50
2022-09-15T15:42:45.332Z,16.40
2022-09-15T15:45:12.142Z,16.40
2022-09-15T15:47:39.065Z,16.50
2022-09-15T15:50:14.023Z,16.50
2022-09-15T15:52:41.155Z,16.40
2022-09-15T15:57:48.207Z,16.40
2022-09-15T16:00:17.722Z,16.50
2022-09-15T16:02:47.865Z,16.50
2022-09-15T16:05:14.741Z,16.50
2022-09-15T16:07:41.505Z,16.50
2022-09-15T16:10:08.138Z,16.50
2022-09-15T16:12:42.434Z,16.60
2022-09-15T16:20:30.130Z,16.60
2022-09-15T16:22:56.713Z,16.60
2022-09-15T16:25:23.261Z,16.60
2022-09-15T16:27:50.828Z,16.50
2022-09-15T16:30:17.482Z,16.50
2022-09-15T16:32:44.124Z,16.50
2022-09-15T16:35:10.731Z,16.50
2022-09-15T16:37:37.595Z,16.60
2022-09-15T16:40:04.181Z,16.60
2022-09-15T16:42:30.905Z,16.60
2022-09-15T16:45:07.731Z,16.60
2022-09-15T16:47:34.710Z,16.60
2022-09-15T16:50:10.202Z,16.60
2022-09-15T16:52:37.624Z,16.60
2022-09-15T16:55:04.749Z,16.60
2022-09-15T16:57:31.286Z,16.60
2022-09-15T16:59:57.921Z,16.50
2022-09-15T17:02:33.052Z,16.50
2022-09-15T17:04:59.625Z,16.50
2022-09-15T17:07:26.495Z,16.50
2022-09-15T17:09:52.994Z,16.50
2022-09-15T17:14:59.965Z,16.50
2022-09-15T17:17:35.186Z,16.40
2022-09-15T17:20:10.746Z,16.40
2022-09-15T17:22:37.626Z,16.40
2022-09-15T17:25:05.160Z,16.40
2022-09-15T17:27:32.064Z,16.40
2022-09-15T17:30:01.470Z,16.40
2022-09-15T17:32:42.830Z,16.40
2022-09-15T17:35:10.681Z,16.40
2022-09-15T17:40:29.680Z,16.40
2022-09-15T17:42:56.177Z,16.40
2022-09-15T17:45:33.639Z,16.30
2022-09-15T17:48:00.223Z,16.30
2022-09-15T17:50:35.504Z,16.30
2022-09-15T17:53:02.628Z,16.30
2022-09-15T17:55:29.507Z,16.30
2022-09-15T17:57:58.246Z,16.30
2022-09-15T18:00:25.163Z,16.20
2022-09-15T18:02:51.715Z,16.20
2022-09-15T18:05:18.749Z,16.20
2022-09-15T18:07:45.411Z,16.10
2022-09-15T18:10:12.067Z,16.10
2022-09-15T18:12:39.256Z,16.00
2022-09-15T18:15:06.382Z,16.00
2022-09-15T18:17:35.605Z,15.90
2022-09-15T18:22:54.181Z,15.80
2022-09-15T18:25:23.466Z,15.80
2022-09-15T18:30:30.686Z,15.70
2022-09-15T18:35:47.390Z,15.60
2022-09-15T18:38:22.742Z,15.60
2022-09-15T18:40:49.620Z,15.60
2022-09-15T18:43:16.106Z,15.60
2022-09-15T18:45:42.704Z,15.60
2022-09-15T18:48:12.629Z,15.60
2022-09-15T18:50:39.892Z,15.60
2022-09-15T18:53:06.836Z,15.60
2022-09-15T18:55:42.129Z,15.60
2022-09-15T18:58:09.113Z,15.60
2022-09-15T19:00:46.823Z,15.60
2022-09-15T19:03:15.305Z,15.60
2022-09-15T19:05:53.043Z,15.60
2022-09-15T19:08:21.983Z,15.60
2022-09-15T19:10:53.098Z,15.60
2022-09-15T19:13:29.266Z,15.60
2022-09-15T19:15:56.475Z,15.60
2022-09-15T19:18:33.743Z,15.60
2022-09-15T19:21:09.516Z,15.60
2022-09-15T19:23:36.102Z,15.60
2022-09-15T19:26:03.794Z,15.50
2022-09-15T19:28:31.001Z,15.50
2022-09-15T19:30:57.565Z,15.50
2022-09-15T19:33:34.889Z,15.40
2022-09-15T19:36:27.004Z,15.40
2022-09-15T19:39:05.776Z,15.50
2022-09-15T19:41:38.447Z,15.40
2022-09-15T19:44:05.336Z,15.40
2022-09-15T19:46:31.921Z,15.40
2022-09-15T19:51:54.610Z,15.30
2022-09-15T19:54:22.633Z,15.30
2022-09-15T19:56:49.215Z,15.30
2022-09-15T19:59:16.724Z,15.30
2022-09-15T20:04:23.990Z,15.30
2022-09-15T20:06:50.923Z,15.20
2022-09-15T20:09:17.397Z,15.20
2022-09-15T20:11:45.285Z,15.10
2022-09-15T20:14:21.418Z,15.10
2022-09-15T20:16:48.338Z,15.10
2022-09-15T20:19:23.596Z,15.10
2022-09-15T20:21:51.429Z,15.00
2022-09-15T20:24:26.376Z,15.00
2022-09-15T20:26:52.950Z,15.00
2022-09-15T20:29:19.492Z,14.90
2022-09-15T20:31:46.074Z,14.90
2022-09-15T20:36:53.272Z,14.70
2022-09-15T20:39:19.900Z,14.60
2022-09-15T20:41:46.553Z,14.60
2022-09-15T20:44:13.153Z,14.50
2022-09-15T20:46:39.650Z,14.40
2022-09-15T20:49:06.451Z,14.30
2022-09-15T20:51:33.125Z,14.20
2022-09-15T20:53:59.677Z,14.20
2022-09-15T20:56:34.401Z,14.10
2022-09-15T20:59:01.224Z,14.10
2022-09-15T21:01:27.786Z,14.00
2022-09-15T21:03:54.650Z,14.00
2022-09-15T21:06:22.138Z,13.80
2022-09-15T21:08:56.822Z,13.70
2022-09-15T21:11:23.697Z,13.70
2022-09-15T21:13:50.517Z,13.60
2022-09-15T21:16:29.357Z,13.50
2022-09-15T21:19:03.934Z,13.50
2022-09-15T21:21:30.433Z,13.50
2022-09-15T21:26:40.674Z,13.50
2022-09-15T21:29:08.551Z,13.50
2022-09-15T21:31:35.245Z,13.40
2022-09-15T21:34:02.145Z,13.50
2022-09-15T21:36:28.744Z,13.40
2022-09-15T21:39:04.574Z,13.40
2022-09-15T21:41:43.030Z,13.40
2022-09-15T21:44:09.908Z,13.40
2022-09-15T21:46:45.142Z,13.40
2022-09-15T21:49:11.775Z,13.40
2022-09-15T21:51:47.465Z,13.30
2022-09-15T21:56:55.757Z,13.30
2022-09-15T21:59:36.302Z,13.30
2022-09-15T22:02:02.919Z,13.30
2022-09-15T22:04:29.650Z,13.30
2022-09-15T22:06:57.433Z,13.30
2022-09-15T22:09:24.091Z,13.30
2022-09-15T22:11:54.919Z,13.40
2022-09-15T22:14:22.774Z,13.40
2022-09-15T22:16:52.709Z,13.40
2022-09-15T22:19:22.065Z,13.40
2022-09-15T22:21:58.222Z,13.50
2022-09-15T22:24:25.211Z,13.40
2022-09-15T22:26:51.902Z,13.50
2022-09-15T22:29:21.427Z,13.50
2022-09-15T22:31:48.977Z,13.50
2022-09-15T22:34:16.680Z,13.50
2022-09-15T22:36:44.356Z,13.50
2022-09-15T22:39:13.714Z,13.50
2022-09-15T22:41:40.427Z,13.40
2022-09-15T22:44:17.521Z,13.40
2022-09-15T22:46:44.136Z,13.40
2022-09-15T22:49:10.619Z,13.40
2022-09-15T22:51:37.103Z,13.50
2022-09-15T22:54:05.238Z,13.40
2022-09-15T22:56:40.531Z,13.40
2022-09-15T22:59:19.754Z,13.40
2022-09-15T23:01:46.450Z,13.40
2022-09-15T23:04:16.430Z,13.40
2022-09-15T23:06:45.720Z,13.40
2022-09-15T23:09:12.198Z,13.40
2022-09-15T23:11:48.205Z,13.40
2022-09-15T23:14:20.780Z,13.40
2022-09-15T23:19:28.294Z,13.40
2022-09-15T23:22:03.767Z,13.40
2022-09-15T23:24:30.329Z,13.30
2022-09-15T23:26:57.179Z,13.20
2022-09-15T23:29:34.408Z,13.30
2022-09-15T23:32:01.267Z,13.30
2022-09-15T23:34:27.986Z,13.20
2022-09-15T23:36:54.575Z,13.20
2022-09-15T23:42:01.925Z,13.20
2022-09-15T23:44:29.623Z,13.20
2022-09-15T23:46:56.235Z,13.30
2022-09-15T23:49:23.027Z,13.30
2022-09-15T23:51:49.902Z,13.30
2022-09-15T23:54:16.418Z,13.30
2022-09-15T23:56:51.154Z,13.30
2022-09-15T23:59:25.782Z,13.30
